Time;durP1;ratioP1;P1;durP2;ratioP2;P2;SDS_P1;SDS_P2;PMS_P1;PMS_P2;Temp;Humidity;BMP_temperature;BMP_pressure;BME280_temperature;BME280_humidity;BME280_pressure;Samples;Min_cycle;Max_cycle;Signal;HPM_P1;HPM_P2
2024/01/08 00:00:40;;;;;;;2.60;2.50;;;;;;;;;;4995554;28;20253;-82
2024/01/08 00:03:07;;;;;;;2.10;2.10;;;;;;;;;;4995733;28;20242;-84
2024/01/08 00:05:37;;;;;;;2.53;2.43;;;;;;;;;;4991946;28;20239;-83
2024/01/08 00:08:04;;;;;;;2.30;2.20;;;;;;;;;;4993686;28;20203;-82
2024/01/08 00:10:33;;;;;;;2.40;2.30;;;;;;;;;;4996683;28;20243;-83
2024/01/08 00:13:00;;;;;;;2.50;2.40;;;;;;;;;;5012802;28;20215;-82
2024/01/08 00:15:27;;;;;;;4.87;2.47;;;;;;;;;;5011988;28;20260;-82
2024/01/08 00:17:54;;;;;;;2.10;2.10;;;;;;;;;;5012607;28;20209;-83
2024/01/08 00:20:21;;;;;;;2.40;2.30;;;;;;;;;;5004883;28;20286;-82
2024/01/08 00:22:48;;;;;;;2.00;2.00;;;;;;;;;;5012440;28;20234;-84
2024/01/08 00:25:15;;;;;;;2.20;2.10;;;;;;;;;;5011707;28;20673;-82
2024/01/08 00:27:44;;;;;;;2.30;2.20;;;;;;;;;;5012815;28;20261;-83
2024/01/08 00:30:11;;;;;;;2.40;2.30;;;;;;;;;;5012178;28;20241;-82
2024/01/08 00:32:38;;;;;;;2.70;2.60;;;;;;;;;;5012595;28;20216;-82
2024/01/08 00:35:06;;;;;;;2.50;2.40;;;;;;;;;;5011676;28;20210;-83
2024/01/08 00:37:35;;;;;;;2.40;2.30;;;;;;;;;;5012326;28;20260;-83
2024/01/08 00:40:02;;;;;;;2.20;2.10;;;;;;;;;;5012055;28;20252;-86
2024/01/08 00:42:29;;;;;;;2.60;2.50;;;;;;;;;;5012050;28;20234;-83
2024/01/08 00:44:58;;;;;;;3.17;2.97;;;;;;;;;;5012195;28;20210;-83
2024/01/08 00:47:25;;;;;;;2.20;2.10;;;;;;;;;;5011323;28;20245;-83
2024/01/08 00:49:52;;;;;;;2.27;2.17;;;;;;;;;;5011969;28;20233;-83
2024/01/08 00:52:19;;;;;;;2.40;2.30;;;;;;;;;;5011720;28;20234;-82
2024/01/08 00:54:46;;;;;;;2.40;2.20;;;;;;;;;;5012127;28;20583;-83
2024/01/08 00:57:13;;;;;;;2.53;2.43;;;;;;;;;;5011792;28;20244;-83
2024/01/08 00:59:40;;;;;;;2.73;2.63;;;;;;;;;;5011576;28;20708;-83
2024/01/08 01:02:08;;;;;;;2.40;2.30;;;;;;;;;;5011556;28;20241;-82
2024/01/08 01:04:35;;;;;;;2.27;2.27;;;;;;;;;;5012122;28;20256;-82
2024/01/08 01:07:02;;;;;;;2.60;2.40;;;;;;;;;;5011643;28;20278;-83
2024/01/08 01:09:29;;;;;;;2.33;2.20;;;;;;;;;;5015452;28;20237;-83
2024/01/08 01:11:57;;;;;;;2.00;2.00;;;;;;;;;;5015433;28;20245;-83
2024/01/08 01:14:24;;;;;;;2.43;2.33;;;;;;;;;;5015685;28;20248;-83
2024/01/08 01:16:51;;;;;;;2.33;2.23;;;;;;;;;;5014952;28;20267;-83
2024/01/08 01:19:19;;;;;;;2.30;2.20;;;;;;;;;;5015443;28;20226;-83
2024/01/08 01:21:46;;;;;;;1.87;1.80;;;;;;;;;;5014939;28;20253;-82
2024/01/08 01:24:13;;;;;;;2.33;2.23;;;;;;;;;;5015232;28;20264;-83
2024/01/08 01:26:40;;;;;;;2.33;2.23;;;;;;;;;;5014875;28;20300;-84
2024/01/08 01:29:07;;;;;;;2.10;2.00;;;;;;;;;;5015403;28;20218;-83
2024/01/08 01:31:35;;;;;;;2.23;2.13;;;;;;;;;;5002487;28;20242;-83
2024/01/08 01:34:02;;;;;;;2.50;2.30;;;;;;;;;;4996035;28;20237;-84
2024/01/08 01:36:35;;;;;;;2.30;2.17;;;;;;;;;;4994931;28;20246;-82
2024/01/08 01:39:02;;;;;;;2.33;2.23;;;;;;;;;;4995794;28;20227;-84
2024/01/08 01:41:29;;;;;;;3.83;2.30;;;;;;;;;;4994980;28;20240;-83
2024/01/08 01:43:56;;;;;;;2.40;2.30;;;;;;;;;;4995433;28;20745;-83
2024/01/08 01:46:26;;;;;;;2.30;2.20;;;;;;;;;;4994708;28;20236;-83
2024/01/08 01:48:53;;;;;;;2.70;2.50;;;;;;;;;;4995408;28;20223;-83
2024/01/08 01:51:20;;;;;;;2.10;2.10;;;;;;;;;;4994989;28;20238;-83
2024/01/08 01:53:48;;;;;;;2.37;2.27;;;;;;;;;;4995049;28;20729;-84
2024/01/08 01:56:16;;;;;;;2.20;2.10;;;;;;;;;;5004568;28;20242;-83
2024/01/08 01:58:43;;;;;;;2.20;2.10;;;;;;;;;;5013928;28;20238;-83
2024/01/08 02:01:10;;;;;;;2.20;2.10;;;;;;;;;;5004966;28;20642;-83
2024/01/08 02:03:37;;;;;;;2.10;2.00;;;;;;;;;;4994849;28;20235;-82
2024/01/08 02:06:07;;;;;;;2.17;2.07;;;;;;;;;;4994559;28;20243;-83
2024/01/08 02:08:35;;;;;;;2.80;2.60;;;;;;;;;;4992243;28;20293;-83
2024/01/08 02:11:04;;;;;;;2.43;2.33;;;;;;;;;;5002733;28;20245;-83
2024/01/08 02:13:31;;;;;;;3.90;2.57;;;;;;;;;;5014634;28;20214;-82
2024/01/08 02:15:58;;;;;;;4.03;2.30;;;;;;;;;;5013710;28;20750;-84
2024/01/08 02:18:25;;;;;;;1.97;1.97;;;;;;;;;;5014079;28;20218;-83
2024/01/08 02:20:52;;;;;;;2.70;2.50;;;;;;;;;;5001244;28;20238;-83
2024/01/08 02:23:20;;;;;;;2.67;2.47;;;;;;;;;;5014365;28;20235;-83
2024/01/08 02:25:47;;;;;;;2.50;2.40;;;;;;;;;;5014062;28;20239;-83
2024/01/08 02:28:14;;;;;;;2.10;2.00;;;;;;;;;;5014243;28;20218;-83
2024/01/08 02:30:41;;;;;;;2.43;2.33;;;;;;;;;;5013706;28;20237;-83
2024/01/08 02:33:08;;;;;;;2.73;2.63;;;;;;;;;;5014526;28;20232;-83
2024/01/08 02:35:36;;;;;;;2.50;2.40;;;;;;;;;;5013908;28;20285;-84
2024/01/08 02:38:03;;;;;;;2.07;2.00;;;;;;;;;;5014119;28;20218;-83
2024/01/08 02:40:31;;;;;;;2.03;2.03;;;;;;;;;;5009374;28;20246;-83
2024/01/08 02:42:58;;;;;;;2.20;2.10;;;;;;;;;;4994657;28;20246;-83
2024/01/08 02:45:25;;;;;;;2.20;2.10;;;;;;;;;;4993996;28;20234;-83
2024/01/08 02:47:52;;;;;;;2.40;2.30;;;;;;;;;;4994537;28;20266;-83
2024/01/08 02:50:19;;;;;;;2.30;2.20;;;;;;;;;;4993857;28;20283;-83
2024/01/08 02:52:46;;;;;;;2.60;2.50;;;;;;;;;;4994399;28;20262;-83
2024/01/08 02:55:13;;;;;;;2.67;2.57;;;;;;;;;;4993527;28;20624;-83
2024/01/08 02:57:42;;;;;;;1.70;1.70;;;;;;;;;;4993881;28;20221;-83
2024/01/08 03:00:09;;;;;;;2.57;2.37;;;;;;;;;;4993430;28;20713;-84
2024/01/08 03:02:37;;;;;;;1.90;1.90;;;;;;;;;;4993967;28;20234;-83
2024/01/08 03:05:04;;;;;;;2.03;2.00;;;;;;;;;;4993702;28;20265;-83
2024/01/08 03:07:31;;;;;;;2.43;2.33;;;;;;;;;;4993456;28;20199;-83
2024/01/08 03:09:59;;;;;;;2.53;2.43;;;;;;;;;;4993426;28;20238;-82
2024/01/08 03:12:26;;;;;;;2.57;2.37;;;;;;;;;;4993415;28;20235;-82
2024/01/08 03:14:55;;;;;;;2.40;2.30;;;;;;;;;;4993650;28;20257;-83
2024/01/08 03:17:22;;;;;;;2.47;2.37;;;;;;;;;;5011949;28;20237;-83
2024/01/08 03:19:49;;;;;;;2.50;2.40;;;;;;;;;;4999950;28;20872;-83
2024/01/08 03:22:16;;;;;;;3.03;2.77;;;;;;;;;;5011188;28;20249;-83
2024/01/08 03:24:43;;;;;;;2.57;2.47;;;;;;;;;;5013328;28;20284;-83
2024/01/08 03:27:10;;;;;;;3.60;2.23;;;;;;;;;;5012351;28;20281;-83
2024/01/08 03:29:37;;;;;;;2.83;2.20;;;;;;;;;;5013106;28;20234;-83
2024/01/08 03:32:06;;;;;;;2.27;2.17;;;;;;;;;;5012015;28;20226;-83
2024/01/08 03:34:33;;;;;;;2.67;2.50;;;;;;;;;;5013207;28;20213;-83
2024/01/08 03:37:00;;;;;;;2.40;2.27;;;;;;;;;;5012671;28;20238;-83
2024/01/08 03:39:27;;;;;;;2.87;2.73;;;;;;;;;;5012780;28;20630;-83
2024/01/08 03:41:55;;;;;;;2.50;2.40;;;;;;;;;;4997114;28;20239;-83
2024/01/08 03:44:23;;;;;;;2.40;2.30;;;;;;;;;;4993061;28;20228;-83
2024/01/08 03:46:50;;;;;;;2.30;2.20;;;;;;;;;;4992575;28;20238;-83
2024/01/08 03:49:18;;;;;;;2.40;2.30;;;;;;;;;;4993488;28;20228;-84
2024/01/08 03:51:45;;;;;;;2.53;2.43;;;;;;;;;;4993068;28;20653;-83
2024/01/08 03:54:13;;;;;;;2.40;2.30;;;;;;;;;;4993379;28;20626;-83
2024/01/08 03:56:40;;;;;;;2.33;2.23;;;;;;;;;;4992757;28;20243;-83
2024/01/08 03:59:08;;;;;;;2.63;2.53;;;;;;;;;;4992959;28;20269;-83
2024/01/08 04:01:35;;;;;;;2.83;2.63;;;;;;;;;;4992782;28;20243;-82
2024/01/08 04:04:02;;;;;;;2.67;2.57;;;;;;;;;;4993077;28;20707;-83
2024/01/08 04:06:30;;;;;;;2.27;2.20;;;;;;;;;;4992232;28;20237;-83
2024/01/08 04:08:57;;;;;;;2.40;2.30;;;;;;;;;;4992914;28;20290;-82
2024/01/08 04:11:24;;;;;;;2.27;2.17;;;;;;;;;;4992295;28;20243;-83
2024/01/08 04:13:51;;;;;;;2.87;2.57;;;;;;;;;;4993258;28;20224;-83
2024/01/08 04:16:18;;;;;;;2.87;2.67;;;;;;;;;;4992344;28;20330;-83
2024/01/08 04:18:45;;;;;;;2.53;2.43;;;;;;;;;;4992902;28;20292;-83
2024/01/08 04:21:16;;;;;;;2.67;2.57;;;;;;;;;;5002080;28;20321;-83
2024/01/08 04:23:45;;;;;;;2.10;2.10;;;;;;;;;;5012485;28;20279;-83
2024/01/08 04:26:15;;;;;;;2.00;2.00;;;;;;;;;;5002408;28;20270;-82
2024/01/08 04:28:42;;;;;;;2.93;2.77;;;;;;;;;;4993058;28;20199;-83
2024/01/08 04:31:09;;;;;;;12.57;2.80;;;;;;;;;;4992374;28;20329;-83
2024/01/08 04:33:36;;;;;;;2.50;2.40;;;;;;;;;;4993226;28;20211;-83
2024/01/08 04:36:04;;;;;;;2.50;2.40;;;;;;;;;;4993004;28;20242;-83
2024/01/08 04:38:31;;;;;;;2.73;2.53;;;;;;;;;;4993370;28;20277;-82
2024/01/08 04:41:00;;;;;;;2.97;2.77;;;;;;;;;;4992941;28;20272;-83
2024/01/08 04:43:27;;;;;;;2.20;2.10;;;;;;;;;;4996695;28;20230;-83
2024/01/08 04:45:54;;;;;;;2.50;2.40;;;;;;;;;;4997128;28;20233;-82
2024/01/08 04:48:21;;;;;;;2.50;2.40;;;;;;;;;;5005223;28;20225;-84
2024/01/08 04:50:48;;;;;;;2.30;2.20;;;;;;;;;;5014718;28;20246;-84
2024/01/08 04:53:15;;;;;;;2.10;2.10;;;;;;;;;;5015554;28;20213;-84
2024/01/08 04:55:42;;;;;;;2.90;2.70;;;;;;;;;;5013593;28;20261;-84
2024/01/08 04:58:10;;;;;;;2.33;2.23;;;;;;;;;;5015176;28;20203;-83
2024/01/08 05:00:36;;;;;;;2.30;2.20;;;;;;;;;;5015820;28;20238;-84
2024/01/08 05:03:04;;;;;;;2.50;2.40;;;;;;;;;;5009656;28;20227;-83
2024/01/08 05:05:31;;;;;;;2.47;2.37;;;;;;;;;;4998466;28;20609;-83
2024/01/08 05:07:58;;;;;;;2.90;2.70;;;;;;;;;;4997455;28;20203;-83
2024/01/08 05:10:25;;;;;;;2.37;2.17;;;;;;;;;;4997042;28;20664;-83
2024/01/08 05:12:52;;;;;;;2.40;2.30;;;;;;;;;;4996980;28;20209;-83
2024/01/08 05:15:20;;;;;;;3.10;2.90;;;;;;;;;;4997813;28;20714;-82
2024/01/08 05:17:47;;;;;;;2.50;2.40;;;;;;;;;;5015359;28;20260;-82
2024/01/08 05:20:14;;;;;;;2.70;2.53;;;;;;;;;;5015228;28;20223;-82
2024/01/08 05:22:41;;;;;;;2.50;2.40;;;;;;;;;;5015355;28;20214;-82
2024/01/08 05:25:09;;;;;;;2.83;2.73;;;;;;;;;;5015069;28;20212;-82
2024/01/08 05:27:36;;;;;;;2.30;2.17;;;;;;;;;;5011799;28;20296;-82
2024/01/08 05:30:04;;;;;;;2.73;2.63;;;;;;;;;;5014973;28;20234;-84
2024/01/08 05:32:32;;;;;;;2.73;2.53;;;;;;;;;;5015660;28;20215;-82
2024/01/08 05:34:59;;;;;;;2.93;2.70;;;;;;;;;;5014854;28;20209;-81
2024/01/08 05:37:26;;;;;;;2.70;2.50;;;;;;;;;;5014704;28;20242;-82
2024/01/08 05:39:53;;;;;;;3.00;2.80;;;;;;;;;;5015745;28;20233;-83
2024/01/08 05:42:20;;;;;;;2.80;2.70;;;;;;;;;;5015026;28;20296;-83
2024/01/08 05:44:47;;;;;;;2.47;2.37;;;;;;;;;;5015297;28;20227;-83
2024/01/08 05:47:15;;;;;;;2.97;2.80;;;;;;;;;;5014760;28;20234;-83
2024/01/08 05:49:44;;;;;;;2.60;2.50;;;;;;;;;;5015200;28;20641;-83
2024/01/08 05:52:11;;;;;;;2.87;2.67;;;;;;;;;;5006076;28;20250;-83
2024/01/08 05:54:46;;;;;;;2.53;2.37;;;;;;;;;;4994067;28;20623;-83
2024/01/08 05:57:14;;;;;;;2.50;2.30;;;;;;;;;;5012135;28;20278;-83
2024/01/08 05:59:41;;;;;;;2.47;2.37;;;;;;;;;;5009824;28;20225;-83
2024/01/08 06:02:08;;;;;;;3.03;2.83;;;;;;;;;;5014313;28;20232;-83
2024/01/08 06:04:35;;;;;;;2.43;2.33;;;;;;;;;;5015057;28;20607;-83
2024/01/08 06:07:03;;;;;;;1.80;1.80;;;;;;;;;;4998462;28;20293;-83
2024/01/08 06:09:30;;;;;;;2.70;2.60;;;;;;;;;;4995227;28;20631;-83
2024/01/08 06:11:58;;;;;;;2.30;2.20;;;;;;;;;;4994334;28;20299;-82
2024/01/08 06:14:25;;;;;;;2.03;2.03;;;;;;;;;;4994348;28;20203;-82
2024/01/08 06:16:52;;;;;;;2.93;2.73;;;;;;;;;;4994121;28;20234;-81
2024/01/08 06:19:20;;;;;;;2.93;2.73;;;;;;;;;;4994809;28;20235;-81
2024/01/08 06:21:47;;;;;;;2.43;2.33;;;;;;;;;;4993921;28;20263;-81
2024/01/08 06:24:15;;;;;;;5.23;2.90;;;;;;;;;;4994437;28;20231;-81
2024/01/08 06:26:42;;;;;;;5.87;2.77;;;;;;;;;;4993795;28;20235;-81
2024/01/08 06:29:11;;;;;;;2.67;2.57;;;;;;;;;;4994052;28;20663;-81
2024/01/08 06:31:38;;;;;;;2.90;2.80;;;;;;;;;;4993849;28;20321;-81
2024/01/08 06:34:05;;;;;;;3.00;2.90;;;;;;;;;;4994440;28;20209;-81
2024/01/08 06:36:34;;;;;;;3.00;2.80;;;;;;;;;;5005507;28;20587;-81
2024/01/08 06:39:01;;;;;;;2.60;2.47;;;;;;;;;;5010938;28;20238;-82
2024/01/08 06:41:29;;;;;;;2.40;2.30;;;;;;;;;;4999926;28;20238;-81
2024/01/08 06:43:56;;;;;;;2.30;2.20;;;;;;;;;;5003156;28;20284;-79
2024/01/08 06:46:23;;;;;;;3.07;2.77;;;;;;;;;;5011214;28;20606;-80
2024/01/08 06:48:51;;;;;;;3.40;3.20;;;;;;;;;;5013393;28;20252;-79
2024/01/08 06:51:19;;;;;;;2.60;2.50;;;;;;;;;;5018253;28;20241;-79
2024/01/08 06:53:47;;;;;;;2.90;2.70;;;;;;;;;;5033088;28;20327;-78
2024/01/08 06:56:14;;;;;;;3.00;2.80;;;;;;;;;;5032359;28;20242;-77
2024/01/08 06:58:42;;;;;;;3.27;2.97;;;;;;;;;;5024675;28;20477;-78
2024/01/08 07:01:09;;;;;;;2.70;2.60;;;;;;;;;;5012628;28;20256;-78
2024/01/08 07:03:37;;;;;;;3.20;3.00;;;;;;;;;;5013207;28;20297;-77
2024/01/08 07:06:04;;;;;;;3.00;2.80;;;;;;;;;;5011603;28;20245;-78
2024/01/08 07:08:31;;;;;;;2.87;2.77;;;;;;;;;;5013048;28;20213;-79
2024/01/08 07:10:58;;;;;;;2.30;2.23;;;;;;;;;;5012415;28;20244;-78
2024/01/08 07:13:25;;;;;;;2.90;2.80;;;;;;;;;;5012829;28;20229;-79
2024/01/08 07:15:54;;;;;;;3.17;2.97;;;;;;;;;;5011920;28;20233;-79
2024/01/08 07:18:21;;;;;;;3.43;3.13;;;;;;;;;;5012916;28;20218;-78
2024/01/08 07:20:48;;;;;;;3.30;3.00;;;;;;;;;;5012154;28;20250;-78
2024/01/08 07:23:15;;;;;;;3.03;2.83;;;;;;;;;;5012788;28;20211;-78
2024/01/08 07:25:42;;;;;;;2.53;2.43;;;;;;;;;;5006630;28;20262;-78
2024/01/08 07:28:10;;;;;;;2.33;2.23;;;;;;;;;;4992981;28;20210;-78
2024/01/08 07:30:38;;;;;;;2.33;2.23;;;;;;;;;;4992679;28;20261;-79
2024/01/08 07:33:06;;;;;;;2.43;2.30;;;;;;;;;;4993342;28;20222;-78
2024/01/08 07:35:34;;;;;;;2.80;2.60;;;;;;;;;;4992560;28;20249;-78
2024/01/08 07:38:01;;;;;;;3.50;3.20;;;;;;;;;;4992949;28;20223;-78
2024/01/08 07:40:28;;;;;;;3.10;2.90;;;;;;;;;;4992574;28;20642;-79
2024/01/08 07:42:56;;;;;;;4.77;4.53;;;;;;;;;;4992626;28;20640;-78
2024/01/08 07:45:23;;;;;;;2.57;2.37;;;;;;;;;;4992128;28;20701;-78
2024/01/08 07:47:50;;;;;;;2.07;2.07;;;;;;;;;;4992767;28;20754;-78
2024/01/08 07:50:19;;;;;;;2.50;2.40;;;;;;;;;;4992413;28;20235;-78
2024/01/08 07:52:46;;;;;;;2.27;2.17;;;;;;;;;;4992795;28;20214;-78
2024/01/08 07:55:13;;;;;;;2.37;2.27;;;;;;;;;;4992125;28;20645;-80
2024/01/08 07:57:40;;;;;;;2.50;2.30;;;;;;;;;;4992854;28;20205;-80
2024/01/08 08:00:11;;;;;;;2.20;2.10;;;;;;;;;;4977658;28;20226;-81
2024/01/08 08:02:38;;;;;;;3.50;3.20;;;;;;;;;;4985825;28;20235;-80
2024/01/08 08:05:06;;;;;;;2.47;2.23;;;;;;;;;;4991382;28;20233;-80
2024/01/08 08:07:35;;;;;;;3.43;2.83;;;;;;;;;;5011117;28;20251;-80
2024/01/08 08:10:02;;;;;;;3.00;2.90;;;;;;;;;;5010082;28;20257;-80
2024/01/08 08:12:30;;;;;;;3.10;2.90;;;;;;;;;;5010437;28;20228;-80
2024/01/08 08:14:58;;;;;;;2.83;2.63;;;;;;;;;;5011080;28;20256;-80
2024/01/08 08:17:25;;;;;;;3.40;2.37;;;;;;;;;;4990359;28;20627;-79
2024/01/08 08:19:51;;;;;;;2.63;2.37;;;;;;;;;;4991090;28;20598;-79
2024/01/08 08:22:18;;;;;;;3.07;2.87;;;;;;;;;;4995338;28;20230;-79
2024/01/08 08:24:47;;;;;;;2.77;2.67;;;;;;;;;;4991315;28;20233;-79
2024/01/08 08:27:15;;;;;;;3.20;3.00;;;;;;;;;;4989530;28;20317;-79
2024/01/08 08:29:42;;;;;;;2.77;2.67;;;;;;;;;;4991793;28;20293;-84
2024/01/08 08:32:09;;;;;;;3.20;2.90;;;;;;;;;;4985931;28;21027;-79
2024/01/08 08:34:36;;;;;;;3.43;2.77;;;;;;;;;;4987233;28;20349;-77
2024/01/08 08:37:04;;;;;;;2.30;2.20;;;;;;;;;;5006827;28;20316;-79
2024/01/08 08:39:31;;;;;;;3.13;3.00;;;;;;;;;;5010565;28;20231;-81
2024/01/08 08:41:59;;;;;;;2.40;2.30;;;;;;;;;;5010199;28;20649;-82
2024/01/08 08:44:26;;;;;;;2.93;2.80;;;;;;;;;;5011109;28;20226;-79
2024/01/08 08:46:53;;;;;;;3.63;3.27;;;;;;;;;;5010245;28;20317;-79
2024/01/08 08:49:20;;;;;;;2.93;2.73;;;;;;;;;;5010810;28;20226;-79
2024/01/08 08:51:47;;;;;;;3.07;2.87;;;;;;;;;;4995882;28;20241;-81
2024/01/08 08:54:14;;;;;;;3.53;3.23;;;;;;;;;;4991038;28;20211;-79
2024/01/08 08:56:42;;;;;;;2.77;2.67;;;;;;;;;;4990905;28;20232;-79
2024/01/08 08:59:10;;;;;;;4.10;3.77;;;;;;;;;;4990983;28;20283;-79
2024/01/08 09:01:37;;;;;;;2.60;2.40;;;;;;;;;;4990599;28;20236;-79
2024/01/08 09:04:05;;;;;;;3.40;3.10;;;;;;;;;;4985850;28;20659;-80
2024/01/08 09:06:33;;;;;;;1.97;1.97;;;;;;;;;;4990547;28;20238;-80
2024/01/08 09:09:01;;;;;;;3.27;2.70;;;;;;;;;;4990658;28;20321;-79
2024/01/08 09:11:28;;;;;;;2.73;2.60;;;;;;;;;;4990751;28;20221;-79
2024/01/08 09:13:55;;;;;;;3.80;3.50;;;;;;;;;;4991292;28;20561;-80
2024/01/08 09:16:26;;;;;;;3.03;2.87;;;;;;;;;;4990430;28;20234;-79
2024/01/08 09:18:53;;;;;;;3.93;3.57;;;;;;;;;;4991082;28;20276;-79
2024/01/08 09:21:20;;;;;;;2.70;2.50;;;;;;;;;;4990802;28;20234;-81
2024/01/08 09:23:47;;;;;;;2.43;2.33;;;;;;;;;;4991522;28;20212;-81
2024/01/08 09:26:15;;;;;;;2.73;2.53;;;;;;;;;;4982327;28;20236;-80
2024/01/08 09:28:42;;;;;;;3.60;3.30;;;;;;;;;;4991317;28;20255;-80
2024/01/08 09:31:09;;;;;;;2.60;2.50;;;;;;;;;;4994106;28;20235;-80
2024/01/08 09:33:38;;;;;;;2.73;2.60;;;;;;;;;;4994742;28;20206;-81
2024/01/08 09:36:05;;;;;;;3.67;3.37;;;;;;;;;;4993803;28;20710;-81
2024/01/08 09:38:32;;;;;;;2.77;2.63;;;;;;;;;;4993863;28;20715;-80
2024/01/08 09:40:59;;;;;;;2.30;2.20;;;;;;;;;;4993652;28;20237;-82
2024/01/08 09:43:27;;;;;;;2.43;2.33;;;;;;;;;;4994531;28;20198;-81
2024/01/08 09:46:01;;;;;;;2.77;2.57;;;;;;;;;;4993496;28;20713;-78
2024/01/08 09:48:29;;;;;;;2.20;2.10;;;;;;;;;;4993866;28;20241;-78
2024/01/08 09:50:57;;;;;;;4.63;3.53;;;;;;;;;;4992957;28;20387;-78
2024/01/08 09:53:24;;;;;;;3.17;2.93;;;;;;;;;;5002119;28;20752;-79
2024/01/08 09:55:51;;;;;;;3.23;3.00;;;;;;;;;;4993386;28;20229;-79
2024/01/08 09:58:19;;;;;;;2.97;2.80;;;;;;;;;;4993578;28;20229;-78
2024/01/08 10:00:46;;;;;;;2.60;2.50;;;;;;;;;;4993493;28;20304;-80
2024/01/08 10:03:13;;;;;;;2.83;2.63;;;;;;;;;;4992253;28;20211;-80
2024/01/08 10:05:40;;;;;;;4.07;3.13;;;;;;;;;;4993322;28;20293;-80
2024/01/08 10:08:08;;;;;;;3.90;3.03;;;;;;;;;;4993458;28;20300;-81
2024/01/08 10:10:35;;;;;;;2.70;2.60;;;;;;;;;;4993682;28;20300;-81
2024/01/08 10:13:03;;;;;;;2.63;2.43;;;;;;;;;;4993844;28;20303;-78
2024/01/08 10:15:30;;;;;;;2.50;2.40;;;;;;;;;;4993098;28;20333;-78
2024/01/08 10:18:01;;;;;;;2.73;2.53;;;;;;;;;;4993669;28;20216;-78
2024/01/08 10:20:28;;;;;;;3.47;3.20;;;;;;;;;;4993358;28;20233;-78
2024/01/08 10:23:05;;;;;;;3.13;2.93;;;;;;;;;;4993757;28;20220;-78
2024/01/08 10:25:35;;;;;;;3.30;3.10;;;;;;;;;;4992912;28;20276;-79
2024/01/08 10:28:02;;;;;;;3.63;3.33;;;;;;;;;;4992797;28;20579;-80
2024/01/08 10:30:29;;;;;;;3.40;3.20;;;;;;;;;;4992695;28;20801;-80
2024/01/08 10:32:59;;;;;;;3.73;3.43;;;;;;;;;;4993389;28;20210;-79
2024/01/08 10:35:27;;;;;;;2.17;2.07;;;;;;;;;;4992887;28;20238;-79
2024/01/08 10:37:56;;;;;;;3.30;3.00;;;;;;;;;;4993192;28;20217;-79
2024/01/08 10:40:23;;;;;;;3.13;2.93;;;;;;;;;;4992500;28;20323;-79
2024/01/08 10:42:51;;;;;;;3.30;3.10;;;;;;;;;;4993378;28;20209;-79
2024/01/08 10:45:18;;;;;;;2.50;2.40;;;;;;;;;;4984987;28;20641;-79
2024/01/08 10:47:51;;;;;;;3.00;2.80;;;;;;;;;;4993116;28;20217;-79
2024/01/08 10:50:19;;;;;;;3.00;2.80;;;;;;;;;;4984851;28;20323;-79
2024/01/08 10:52:52;;;;;;;3.50;3.17;;;;;;;;;;4992940;28;20247;-79
2024/01/08 10:55:20;;;;;;;3.00;2.80;;;;;;;;;;4985006;28;20283;-79
2024/01/08 10:57:51;;;;;;;1.97;1.93;;;;;;;;;;4993036;28;20218;-79
2024/01/08 11:00:21;;;;;;;3.27;3.07;;;;;;;;;;4984546;28;20254;-79
2024/01/08 11:02:49;;;;;;;4.47;4.07;;;;;;;;;;4992968;28;20219;-79
2024/01/08 11:05:17;;;;;;;3.20;2.93;;;;;;;;;;4991989;28;20311;-80
2024/01/08 11:07:44;;;;;;;3.37;3.17;;;;;;;;;;4992706;28;20201;-80
2024/01/08 11:10:12;;;;;;;2.83;2.73;;;;;;;;;;4992206;28;20236;-79
2024/01/08 11:12:40;;;;;;;2.20;2.17;;;;;;;;;;4992795;28;20210;-81
2024/01/08 11:15:07;;;;;;;3.23;3.00;;;;;;;;;;4992134;28;20237;-80
2024/01/08 11:17:36;;;;;;;3.27;2.90;;;;;;;;;;4992428;28;20205;-79
2024/01/08 11:20:05;;;;;;;4.47;3.57;;;;;;;;;;4991564;28;20300;-78
2024/01/08 11:22:33;;;;;;;3.83;3.53;;;;;;;;;;4987590;28;20233;-80
2024/01/08 11:25:00;;;;;;;5.80;3.83;;;;;;;;;;4992111;28;20259;-80
2024/01/08 11:27:29;;;;;;;4.63;3.43;;;;;;;;;;5011037;28;20645;-80
2024/01/08 11:30:01;;;;;;;3.63;3.30;;;;;;;;;;5011498;28;20278;-80
2024/01/08 11:32:43;;;;;;;2.90;2.70;;;;;;;;;;5011849;28;20620;-80
2024/01/08 11:35:13;;;;;;;2.77;2.57;;;;;;;;;;5010331;28;20661;-79
2024/01/08 11:37:41;;;;;;;3.77;3.47;;;;;;;;;;4992255;28;20207;-80
2024/01/08 11:40:15;;;;;;;2.97;2.67;;;;;;;;;;4991358;28;20699;-80
2024/01/08 11:42:43;;;;;;;2.97;2.83;;;;;;;;;;4992285;28;20276;-80
2024/01/08 11:45:10;;;;;;;3.03;2.83;;;;;;;;;;4991359;28;20230;-79
2024/01/08 11:47:37;;;;;;;2.00;1.90;;;;;;;;;;4991654;28;20218;-79
2024/01/08 11:50:05;;;;;;;3.40;2.90;;;;;;;;;;4991449;28;20234;-79
2024/01/08 11:52:34;;;;;;;3.63;3.43;;;;;;;;;;4991367;28;20226;-81
2024/01/08 11:55:01;;;;;;;5.53;3.83;;;;;;;;;;4991935;28;20629;-78
2024/01/08 11:57:28;;;;;;;3.40;3.10;;;;;;;;;;5010629;28;20673;-80
2024/01/08 11:59:55;;;;;;;4.70;2.87;;;;;;;;;;5011435;28;20719;-79
2024/01/08 12:02:24;;;;;;;4.90;3.20;;;;;;;;;;5010940;28;20233;-81
2024/01/08 12:04:55;;;;;;;3.37;3.10;;;;;;;;;;5011369;28;20216;-81
2024/01/08 12:07:23;;;;;;;3.70;3.40;;;;;;;;;;5010518;28;20237;-80
2024/01/08 12:09:51;;;;;;;2.70;2.60;;;;;;;;;;5011319;28;20238;-78
2024/01/08 12:12:19;;;;;;;3.83;3.50;;;;;;;;;;5010760;28;20231;-78
2024/01/08 12:14:47;;;;;;;4.27;3.83;;;;;;;;;;5011554;28;20672;-78
2024/01/08 12:17:15;;;;;;;3.13;2.83;;;;;;;;;;4992206;28;20254;-79
2024/01/08 12:19:45;;;;;;;3.53;3.23;;;;;;;;;;4991467;28;20222;-79
2024/01/08 12:22:12;;;;;;;4.87;3.60;;;;;;;;;;4991092;28;20736;-78
2024/01/08 12:24:42;;;;;;;3.13;2.93;;;;;;;;;;4991744;28;20790;-78
2024/01/08 12:27:10;;;;;;;3.10;2.80;;;;;;;;;;4990580;28;20245;-83
2024/01/08 12:29:38;;;;;;;3.47;3.27;;;;;;;;;;4991050;28;20217;-78
2024/01/08 12:32:06;;;;;;;4.20;3.80;;;;;;;;;;4990896;28;20229;-78
2024/01/08 12:34:34;;;;;;;3.40;3.13;;;;;;;;;;4991569;28;20301;-79
2024/01/08 12:37:01;;;;;;;4.23;3.40;;;;;;;;;;4990683;28;20239;-78
2024/01/08 12:39:29;;;;;;;4.63;3.60;;;;;;;;;;4991367;28;20253;-79
2024/01/08 12:41:58;;;;;;;3.70;3.40;;;;;;;;;;4990753;28;20254;-78
2024/01/08 12:44:27;;;;;;;3.17;2.97;;;;;;;;;;4991550;28;20257;-78
2024/01/08 12:46:55;;;;;;;4.20;3.80;;;;;;;;;;4990605;28;20243;-78
2024/01/08 12:49:23;;;;;;;3.87;3.57;;;;;;;;;;4985979;28;20237;-78
2024/01/08 12:51:51;;;;;;;4.70;3.50;;;;;;;;;;4990990;28;20234;-79
2024/01/08 12:54:18;;;;;;;3.80;3.50;;;;;;;;;;4990959;28;20673;-78
2024/01/08 12:56:45;;;;;;;3.40;3.10;;;;;;;;;;4990614;28;20313;-79
2024/01/08 12:59:13;;;;;;;3.67;3.37;;;;;;;;;;4990818;28;20230;-80
2024/01/08 13:01:42;;;;;;;3.83;3.50;;;;;;;;;;4990852;28;20398;-80
2024/01/08 13:04:10;;;;;;;3.57;3.33;;;;;;;;;;4992297;28;20270;-79
2024/01/08 13:06:37;;;;;;;4.33;3.57;;;;;;;;;;4994120;28;20289;-79
2024/01/08 13:09:04;;;;;;;4.50;4.10;;;;;;;;;;4994537;28;20231;-79
2024/01/08 13:11:31;;;;;;;2.70;2.50;;;;;;;;;;4994470;28;20310;-80
2024/01/08 13:13:57;;;;;;;4.43;4.03;;;;;;;;;;4994724;28;20677;-78
2024/01/08 13:16:24;;;;;;;3.07;2.87;;;;;;;;;;4993820;28;20234;-79
2024/01/08 13:18:53;;;;;;;4.07;3.67;;;;;;;;;;4994145;28;20224;-79
2024/01/08 13:21:20;;;;;;;4.23;3.83;;;;;;;;;;4993983;28;20240;-78
2024/01/08 13:23:47;;;;;;;5.87;4.33;;;;;;;;;;4993696;28;20212;-78
2024/01/08 13:26:14;;;;;;;4.07;3.33;;;;;;;;;;4993521;28;20298;-78
2024/01/08 13:28:41;;;;;;;3.73;3.43;;;;;;;;;;4994088;28;20200;-78
2024/01/08 13:31:09;;;;;;;5.30;4.00;;;;;;;;;;4993765;28;20282;-78
2024/01/08 13:33:36;;;;;;;3.43;3.23;;;;;;;;;;4994714;28;20199;-78
2024/01/08 13:36:05;;;;;;;3.80;3.50;;;;;;;;;;4993568;28;20234;-78
2024/01/08 13:38:32;;;;;;;3.70;2.93;;;;;;;;;;4993705;28;20585;-78
2024/01/08 13:41:00;;;;;;;5.63;4.77;;;;;;;;;;4993695;28;20243;-78
2024/01/08 13:43:27;;;;;;;3.97;3.57;;;;;;;;;;4986073;28;20208;-78
2024/01/08 13:45:55;;;;;;;5.13;3.93;;;;;;;;;;4993641;28;20741;-78
2024/01/08 13:48:22;;;;;;;4.10;3.70;;;;;;;;;;4993604;28;20219;-79
2024/01/08 13:50:50;;;;;;;4.47;3.17;;;;;;;;;;4993518;28;20609;-78
2024/01/08 13:53:20;;;;;;;2.70;2.60;;;;;;;;;;4994072;28;20213;-78
2024/01/08 13:55:47;;;;;;;3.50;3.20;;;;;;;;;;4993177;28;20322;-78
2024/01/08 13:58:14;;;;;;;3.70;3.40;;;;;;;;;;4988268;28;20235;-78
2024/01/08 14:00:42;;;;;;;3.33;3.13;;;;;;;;;;4993541;28;20301;-79
2024/01/08 14:03:09;;;;;;;5.13;4.63;;;;;;;;;;4994124;28;20212;-81
2024/01/08 14:05:37;;;;;;;4.33;3.93;;;;;;;;;;4992903;28;20239;-80
2024/01/08 14:08:04;;;;;;;5.70;4.03;;;;;;;;;;4992604;28;20310;-80
2024/01/08 14:10:32;;;;;;;4.97;3.90;;;;;;;;;;4993190;28;20236;-80
2024/01/08 14:13:01;;;;;;;6.97;4.27;;;;;;;;;;4993973;28;20567;-80
2024/01/08 14:15:28;;;;;;;4.93;4.10;;;;;;;;;;4992636;28;20254;-80
2024/01/08 14:17:57;;;;;;;4.13;3.73;;;;;;;;;;4993848;28;20590;-80
2024/01/08 14:20:25;;;;;;;3.47;2.37;;;;;;;;;;4992822;28;20245;-79
2024/01/08 14:22:52;;;;;;;4.70;3.93;;;;;;;;;;4993383;28;20673;-80
2024/01/08 14:25:19;;;;;;;4.73;4.27;;;;;;;;;;4991895;28;20728;-80
2024/01/08 14:27:48;;;;;;;5.83;4.43;;;;;;;;;;4992893;28;20242;-80
2024/01/08 14:30:15;;;;;;;4.63;3.53;;;;;;;;;;4992098;28;20684;-80
2024/01/08 14:32:42;;;;;;;6.10;4.70;;;;;;;;;;4992565;28;20206;-81
2024/01/08 14:35:10;;;;;;;6.03;4.93;;;;;;;;;;4991956;28;20235;-80
2024/01/08 14:37:37;;;;;;;6.20;4.80;;;;;;;;;;4992474;28;20289;-80
2024/01/08 14:40:04;;;;;;;4.50;3.63;;;;;;;;;;4992061;28;20227;-81
2024/01/08 14:42:31;;;;;;;5.73;4.40;;;;;;;;;;4992575;28;20550;-81
2024/01/08 14:45:00;;;;;;;5.30;4.37;;;;;;;;;;4992752;28;20211;-86